sensor_id;sensor_type;location;lat;lon;timestamp;pressure;altitude;pressure_sealevel;temperature;humidity
67697;BME280;54486;51.442;6.778;2023-04-28T00:00:45;101160.59;;;10.57;64.53
67697;BME280;54486;51.442;6.778;2023-04-28T00:03:14;101147.56;;;10.57;66.15
67697;BME280;54486;51.442;6.778;2023-04-28T00:05:41;101144.97;;;10.54;66.96
67697;BME280;54486;51.442;6.778;2023-04-28T00:08:08;101131.91;;;10.48;71.12
67697;BME280;54486;51.442;6.778;2023-04-28T00:10:35;101129.31;;;10.42;71.75
67697;BME280;54486;51.442;6.778;2023-04-28T00:13:02;101120.66;;;10.37;68.90
67697;BME280;54486;51.442;6.778;2023-04-28T00:15:29;101124.13;;;10.33;71.30
67697;BME280;54486;51.442;6.778;2023-04-28T00:17:56;101130.22;;;10.23;69.83
67697;BME280;54486;51.442;6.778;2023-04-28T00:20:23;101130.22;;;10.20;72.03
67697;BME280;54486;51.442;6.778;2023-04-28T00:22:50;101121.50;;;10.16;74.72
67697;BME280;54486;51.442;6.778;2023-04-28T00:25:16;101114.56;;;10.14;74.57
67697;BME280;54486;51.442;6.778;2023-04-28T00:27:44;101113.66;;;10.08;73.13
67697;BME280;54486;51.442;6.778;2023-04-28T00:30:11;101110.19;;;10.09;72.99
67697;BME280;54486;51.442;6.778;2023-04-28T00:32:38;101104.97;;;10.13;77.24
67697;BME280;54486;51.442;6.778;2023-04-28T00:35:05;101094.53;;;10.06;77.65
67697;BME280;54486;51.442;6.778;2023-04-28T00:37:36;101087.56;;;10.02;77.22
67697;BME280;54486;51.442;6.778;2023-04-28T00:40:04;101096.28;;;10.04;78.64
67697;BME280;54486;51.442;6.778;2023-04-28T00:42:31;101091.06;;;10.01;79.75
67697;BME280;54486;51.442;6.778;2023-04-28T00:44:58;101085.88;;;9.95;78.71
67697;BME280;54486;51.442;6.778;2023-04-28T00:47:31;101092.78;;;9.96;80.97
67697;BME280;54486;51.442;6.778;2023-04-28T00:50:03;101089.34;;;9.91;82.96
67697;BME280;54486;51.442;6.778;2023-04-28T00:52:32;101091.94;;;9.88;81.00
67697;BME280;54486;51.442;6.778;2023-04-28T00:54:59;101094.53;;;9.88;84.60
67697;BME280;54486;51.442;6.778;2023-04-28T00:57:28;101085.00;;;9.86;84.94
67697;BME280;54486;51.442;6.778;2023-04-28T00:59:57;101079.78;;;9.84;87.22
67697;BME280;54486;51.442;6.778;2023-04-28T01:02:25;101078.91;;;9.79;89.63
67697;BME280;54486;51.442;6.778;2023-04-28T01:04:53;101065.00;;;9.74;89.03
67697;BME280;54486;51.442;6.778;2023-04-28T01:07:21;101078.03;;;9.76;89.74
67697;BME280;54486;51.442;6.778;2023-04-28T01:09:50;101070.19;;;9.74;89.60
67697;BME280;54486;51.442;6.778;2023-04-28T01:12:18;101072.81;;;9.77;89.25
67697;BME280;54486;51.442;6.778;2023-04-28T01:14:45;101078.88;;;9.70;90.19
67697;BME280;54486;51.442;6.778;2023-04-28T01:17:12;101070.19;;;9.68;90.98
67697;BME280;54486;51.442;6.778;2023-04-28T01:19:42;101063.25;;;9.64;91.47
67697;BME280;54486;51.442;6.778;2023-04-28T01:22:09;101058.91;;;9.57;93.21
67697;BME280;54486;51.442;6.778;2023-04-28T01:24:37;101057.16;;;9.53;94.21
67697;BME280;54486;51.442;6.778;2023-04-28T01:27:05;101064.09;;;9.49;93.55
67697;BME280;54486;51.442;6.778;2023-04-28T01:29:33;101064.09;;;9.40;93.61
67697;BME280;54486;51.442;6.778;2023-04-28T01:32:00;101063.22;;;9.40;92.82
67697;BME280;54486;51.442;6.778;2023-04-28T01:34:27;101066.66;;;9.36;93.39
67697;BME280;54486;51.442;6.778;2023-04-28T01:36:54;101064.09;;;9.37;93.37
67697;BME280;54486;51.442;6.778;2023-04-28T01:39:22;101066.66;;;9.36;93.57
67697;BME280;54486;51.442;6.778;2023-04-28T01:41:49;101073.63;;;9.34;94.62
67697;BME280;54486;51.442;6.778;2023-04-28T01:44:18;101071.88;;;9.33;94.86
67697;BME280;54486;51.442;6.778;2023-04-28T01:46:45;101062.34;;;9.33;95.40
67697;BME280;54486;51.442;6.778;2023-04-28T01:49:12;101059.75;;;9.35;94.34
67697;BME280;54486;51.442;6.778;2023-04-28T01:51:40;101053.66;;;9.36;94.04
67697;BME280;54486;51.442;6.778;2023-04-28T01:54:08;101059.75;;;9.35;95.29
67697;BME280;54486;51.442;6.778;2023-04-28T01:59:43;101044.97;;;9.35;96.77
67697;BME280;54486;51.442;6.778;2023-04-28T02:02:10;101044.13;;;9.35;97.63
67697;BME280;54486;51.442;6.778;2023-04-28T02:04:38;101043.22;;;9.33;96.91
67697;BME280;54486;51.442;6.778;2023-04-28T02:07:05;101036.28;;;9.33;98.79
67697;BME280;54486;51.442;6.778;2023-04-28T02:09:33;101030.22;;;9.30;97.64
67697;BME280;54486;51.442;6.778;2023-04-28T02:12:00;101022.41;;;9.28;95.42
67697;BME280;54486;51.442;6.778;2023-04-28T02:14:28;101031.94;;;9.28;96.14
67697;BME280;54486;51.442;6.778;2023-04-28T02:16:57;101023.25;;;9.26;95.92
67697;BME280;54486;51.442;6.778;2023-04-28T02:19:25;101015.44;;;9.21;98.67
67697;BME280;54486;51.442;6.778;2023-04-28T02:21:52;101013.72;;;9.16;99.05
67697;BME280;54486;51.442;6.778;2023-04-28T02:24:19;101018.03;;;9.14;97.94
67697;BME280;54486;51.442;6.778;2023-04-28T02:26:47;101018.91;;;9.16;98.44
67697;BME280;54486;51.442;6.778;2023-04-28T02:29:14;101019.78;;;9.21;97.91
67697;BME280;54486;51.442;6.778;2023-04-28T02:31:41;101026.72;;;9.22;100.00
67697;BME280;54486;51.442;6.778;2023-04-28T02:34:10;101029.34;;;9.19;100.00
67697;BME280;54486;51.442;6.778;2023-04-28T02:36:38;101026.72;;;9.19;100.00
67697;BME280;54486;51.442;6.778;2023-04-28T02:39:05;101029.31;;;9.20;100.00
67697;BME280;54486;51.442;6.778;2023-04-28T02:41:32;101033.66;;;9.23;99.73
67697;BME280;54486;51.442;6.778;2023-04-28T02:44:00;101027.59;;;9.25;100.00
67697;BME280;54486;51.442;6.778;2023-04-28T02:46:27;101028.44;;;9.26;100.00
67697;BME280;54486;51.442;6.778;2023-04-28T02:48:54;101021.53;;;9.28;100.00
67697;BME280;54486;51.442;6.778;2023-04-28T02:51:22;101021.53;;;9.28;100.00
67697;BME280;54486;51.442;6.778;2023-04-28T02:53:49;101012.84;;;9.26;100.00
67697;BME280;54486;51.442;6.778;2023-04-28T02:56:17;101019.78;;;9.27;100.00
67697;BME280;54486;51.442;6.778;2023-04-28T02:58:43;101015.44;;;9.24;100.00
67697;BME280;54486;51.442;6.778;2023-04-28T03:01:10;101022.38;;;9.24;100.00
67697;BME280;54486;51.442;6.778;2023-04-28T03:03:37;101018.03;;;9.23;100.00
67697;BME280;54486;51.442;6.778;2023-04-28T03:06:05;101014.56;;;9.21;100.00
67697;BME280;54486;51.442;6.778;2023-04-28T03:08:32;101009.38;;;9.21;100.00
67697;BME280;54486;51.442;6.778;2023-04-28T03:11:00;101011.94;;;9.19;100.00
67697;BME280;54486;51.442;6.778;2023-04-28T03:13:26;101011.09;;;9.19;100.00
67697;BME280;54486;51.442;6.778;2023-04-28T03:15:55;101005.91;;;9.19;100.00
67697;BME280;54486;51.442;6.778;2023-04-28T03:18:22;101000.69;;;9.19;100.00
67697;BME280;54486;51.442;6.778;2023-04-28T03:20:50;100997.22;;;9.23;100.00
67697;BME280;54486;51.442;6.778;2023-04-28T03:23:16;100991.13;;;9.24;100.00
67697;BME280;54486;51.442;6.778;2023-04-28T03:25:43;100983.34;;;9.24;100.00
67697;BME280;54486;51.442;6.778;2023-04-28T03:28:10;100989.41;;;9.24;100.00
67697;BME280;54486;51.442;6.778;2023-04-28T03:30:38;100985.06;;;9.26;100.00
67697;BME280;54486;51.442;6.778;2023-04-28T03:33:05;100988.56;;;9.28;100.00
67697;BME280;54486;51.442;6.778;2023-04-28T03:35:33;100987.66;;;9.26;100.00
67697;BME280;54486;51.442;6.778;2023-04-28T03:38:00;100973.78;;;9.24;100.00
67697;BME280;54486;51.442;6.778;2023-04-28T03:40:27;100964.25;;;9.28;100.00
67697;BME280;54486;51.442;6.778;2023-04-28T03:42:53;100956.44;;;9.28;100.00
67697;BME280;54486;51.442;6.778;2023-04-28T03:45:20;100950.34;;;9.32;100.00
67697;BME280;54486;51.442;6.778;2023-04-28T03:47:47;100943.41;;;9.34;100.00
67697;BME280;54486;51.442;6.778;2023-04-28T03:50:14;100939.97;;;9.35;100.00
67697;BME280;54486;51.442;6.778;2023-04-28T03:52:41;100934.75;;;9.35;100.00
67697;BME280;54486;51.442;6.778;2023-04-28T03:55:08;100933.88;;;9.37;100.00
67697;BME280;54486;51.442;6.778;2023-04-28T03:57:35;100925.19;;;9.37;100.00
67697;BME280;54486;51.442;6.778;2023-04-28T04:00:02;100915.63;;;9.36;100.00
67697;BME280;54486;51.442;6.778;2023-04-28T04:02:32;100910.44;;;9.36;100.00
67697;BME280;54486;51.442;6.778;2023-04-28T04:04:59;100904.34;;;9.41;100.00
67697;BME280;54486;51.442;6.778;2023-04-28T04:07:27;100901.75;;;9.46;100.00
67697;BME280;54486;51.442;6.778;2023-04-28T04:09:54;100906.06;;;9.51;100.00
67697;BME280;54486;51.442;6.778;2023-04-28T04:12:21;100913.88;;;9.56;100.00
67697;BME280;54486;51.442;6.778;2023-04-28T04:14:48;100923.44;;;9.62;100.00
67697;BME280;54486;51.442;6.778;2023-04-28T04:17:15;100923.44;;;9.66;100.00
67697;BME280;54486;51.442;6.778;2023-04-28T04:19:42;100926.91;;;9.73;100.00
67697;BME280;54486;51.442;6.778;2023-04-28T04:22:09;100931.22;;;9.78;100.00
67697;BME280;54486;51.442;6.778;2023-04-28T04:24:36;100932.06;;;9.83;100.00
67697;BME280;54486;51.442;6.778;2023-04-28T04:27:03;100924.25;;;9.89;100.00
67697;BME280;54486;51.442;6.778;2023-04-28T04:29:31;100915.56;;;9.93;100.00
67697;BME280;54486;51.442;6.778;2023-04-28T04:31:57;100912.94;;;9.98;100.00
67697;BME280;54486;51.442;6.778;2023-04-28T04:34:24;100925.97;;;10.01;100.00
67697;BME280;54486;51.442;6.778;2023-04-28T04:36:51;100926.84;;;10.04;100.00
67697;BME280;54486;51.442;6.778;2023-04-28T04:39:18;100932.91;;;10.06;100.00
67697;BME280;54486;51.442;6.778;2023-04-28T04:41:45;100928.53;;;10.08;100.00
67697;BME280;54486;51.442;6.778;2023-04-28T04:44:12;100918.09;;;10.11;100.00
67697;BME280;54486;51.442;6.778;2023-04-28T04:46:40;100910.31;;;10.15;100.00
67697;BME280;54486;51.442;6.778;2023-04-28T04:49:07;100891.19;;;10.16;100.00
67697;BME280;54486;51.442;6.778;2023-04-28T04:51:34;100895.53;;;10.15;100.00
67697;BME280;54486;51.442;6.778;2023-04-28T04:54:01;100896.41;;;10.16;100.00
67697;BME280;54486;51.442;6.778;2023-04-28T04:56:28;100896.41;;;10.16;100.00
67697;BME280;54486;51.442;6.778;2023-04-28T04:58:55;100887.72;;;10.17;100.00
67697;BME280;54486;51.442;6.778;2023-04-28T05:01:23;100894.69;;;10.15;100.00
67697;BME280;54486;51.442;6.778;2023-04-28T05:03:49;100885.97;;;10.16;100.00
67697;BME280;54486;51.442;6.778;2023-04-28T05:06:17;100886.81;;;10.19;100.00
67697;BME280;54486;51.442;6.778;2023-04-28T05:08:44;100888.56;;;10.20;100.00
67697;BME280;54486;51.442;6.778;2023-04-28T05:11:11;100891.16;;;10.19;100.00
67697;BME280;54486;51.442;6.778;2023-04-28T05:13:38;100897.25;;;10.21;100.00
67697;BME280;54486;51.442;6.778;2023-04-28T05:16:06;100881.59;;;10.22;100.00
67697;BME280;54486;51.442;6.778;2023-04-28T05:18:33;100894.63;;;10.24;100.00
67697;BME280;54486;51.442;6.778;2023-04-28T05:21:00;100885.91;;;10.25;100.00
67697;BME280;54486;51.442;6.778;2023-04-28T05:23:27;100882.47;;;10.27;100.00
67697;BME280;54486;51.442;6.778;2023-04-28T05:25:54;100880.69;;;10.31;100.00
67697;BME280;54486;51.442;6.778;2023-04-28T05:28:22;100888.50;;;10.32;100.00
67697;BME280;54486;51.442;6.778;2023-04-28T05:30:49;100878.94;;;10.36;100.00
67697;BME280;54486;51.442;6.778;2023-04-28T05:33:16;100888.47;;;10.40;100.00
67697;BME280;54486;51.442;6.778;2023-04-28T05:35:43;100868.47;;;10.39;100.00
67697;BME280;54486;51.442;6.778;2023-04-28T05:38:10;100877.13;;;10.44;100.00
67697;BME280;54486;51.442;6.778;2023-04-28T05:40:37;100877.13;;;10.47;100.00
67697;BME280;54486;51.442;6.778;2023-04-28T05:43:04;100871.88;;;10.53;100.00
67697;BME280;54486;51.442;6.778;2023-04-28T05:45:31;100877.09;;;10.56;100.00
67697;BME280;54486;51.442;6.778;2023-04-28T05:47:58;100876.22;;;10.58;100.00
67697;BME280;54486;51.442;6.778;2023-04-28T05:50:25;100879.66;;;10.62;100.00
67697;BME280;54486;51.442;6.778;2023-04-28T05:52:52;100877.03;;;10.65;100.00
67697;BME280;54486;51.442;6.778;2023-04-28T05:55:19;100882.25;;;10.68;100.00
67697;BME280;54486;51.442;6.778;2023-04-28T05:57:47;100874.38;;;10.70;100.00
67697;BME280;54486;51.442;6.778;2023-04-28T06:00:19;100874.34;;;10.73;100.00
67697;BME280;54486;51.442;6.778;2023-04-28T06:02:46;100875.22;;;10.73;100.00
67697;BME280;54486;51.442;6.778;2023-04-28T06:05:13;100875.25;;;10.75;100.00
67697;BME280;54486;51.442;6.778;2023-04-28T06:07:40;100870.88;;;10.77;100.00
67697;BME280;54486;51.442;6.778;2023-04-28T06:10:09;100871.72;;;10.77;100.00
67697;BME280;54486;51.442;6.778;2023-04-28T06:12:37;100863.03;;;10.78;100.00
67697;BME280;54486;51.442;6.778;2023-04-28T06:15:05;100847.34;;;10.81;100.00
67697;BME280;54486;51.442;6.778;2023-04-28T06:17:32;100849.00;;;10.88;100.00
67697;BME280;54486;51.442;6.778;2023-04-28T06:19:59;100852.44;;;10.95;100.00
67697;BME280;54486;51.442;6.778;2023-04-28T06:22:27;100860.22;;;11.01;100.00
67697;BME280;54486;51.442;6.778;2023-04-28T06:24:54;100854.13;;;11.06;100.00
67697;BME280;54486;51.442;6.778;2023-04-28T06:27:22;100854.06;;;11.12;100.00
67697;BME280;54486;51.442;6.778;2023-04-28T06:29:49;100858.38;;;11.20;100.00
67697;BME280;54486;51.442;6.778;2023-04-28T06:32:17;100860.88;;;11.29;100.00
67697;BME280;54486;51.442;6.778;2023-04-28T06:34:45;100853.88;;;11.34;100.00
67697;BME280;54486;51.442;6.778;2023-04-28T06:37:12;100853.84;;;11.37;100.00
67697;BME280;54486;51.442;6.778;2023-04-28T06:39:39;100861.63;;;11.43;100.00
67697;BME280;54486;51.442;6.778;2023-04-28T06:42:09;100858.03;;;11.53;100.00
67697;BME280;54486;51.442;6.778;2023-04-28T06:44:36;100850.13;;;11.60;100.00
67697;BME280;54486;51.442;6.778;2023-04-28T06:47:03;100850.94;;;11.65;100.00
67697;BME280;54486;51.442;6.778;2023-04-28T06:49:30;100843.09;;;11.67;100.00
67697;BME280;54486;51.442;6.778;2023-04-28T06:51:57;100848.31;;;11.70;100.00
67697;BME280;54486;51.442;6.778;2023-04-28T06:54:24;100846.44;;;11.81;100.00
67697;BME280;54486;51.442;6.778;2023-04-28T06:56:51;100842.78;;;11.96;100.00
67697;BME280;54486;51.442;6.778;2023-04-28T06:59:19;100840.91;;;12.08;100.00
67697;BME280;54486;51.442;6.778;2023-04-28T07:01:46;100844.25;;;12.16;100.00
67697;BME280;54486;51.442;6.778;2023-04-28T07:04:13;100846.75;;;12.26;100.00
67697;BME280;54486;51.442;6.778;2023-04-28T07:06:41;100840.53;;;12.36;100.00
67697;BME280;54486;51.442;6.778;2023-04-28T07:09:07;100843.91;;;12.44;100.00
67697;BME280;54486;51.442;6.778;2023-04-28T07:11:34;100845.47;;;12.57;100.00
67697;BME280;54486;51.442;6.778;2023-04-28T07:14:01;100845.28;;;12.69;100.00
67697;BME280;54486;51.442;6.778;2023-04-28T07:16:28;100832.94;;;12.77;100.00
67697;BME280;54486;51.442;6.778;2023-04-28T07:18:56;100825.78;;;12.88;100.00
67697;BME280;54486;51.442;6.778;2023-04-28T07:21:22;100835.25;;;12.97;100.00
67697;BME280;54486;51.442;6.778;2023-04-28T07:23:49;100841.19;;;13.06;100.00
67697;BME280;54486;51.442;6.778;2023-04-28T07:26:17;100832.50;;;13.04;97.59
67697;BME280;54486;51.442;6.778;2023-04-28T07:28:44;100830.66;;;13.12;98.63
67697;BME280;54486;51.442;6.778;2023-04-28T07:31:11;100842.69;;;13.22;97.84
67697;BME280;54486;51.442;6.778;2023-04-28T07:33:38;100840.78;;;13.34;97.54
67697;BME280;54486;51.442;6.778;2023-04-28T07:36:05;100847.56;;;13.44;96.82
67697;BME280;54486;51.442;6.778;2023-04-28T07:38:33;100843.25;;;13.41;95.51
67697;BME280;54486;51.442;6.778;2023-04-28T07:41:04;100836.25;;;13.40;95.30
67697;BME280;54486;51.442;6.778;2023-04-28T07:43:35;100849.34;;;13.42;94.09
67697;BME280;54486;51.442;6.778;2023-04-28T07:46:03;100844.81;;;13.51;96.24
67697;BME280;54486;51.442;6.778;2023-04-28T07:48:30;100842.00;;;13.62;96.32
67697;BME280;54486;51.442;6.778;2023-04-28T07:50:58;100857.69;;;13.65;94.38
67697;BME280;54486;51.442;6.778;2023-04-28T07:53:26;100856.75;;;13.66;93.79
67697;BME280;54486;51.442;6.778;2023-04-28T07:55:53;100854.94;;;13.69;94.50
67697;BME280;54486;51.442;6.778;2023-04-28T07:58:20;100850.63;;;13.67;94.14
67697;BME280;54486;51.442;6.778;2023-04-28T08:00:48;100849.94;;;13.59;92.68
67697;BME280;54486;51.442;6.778;2023-04-28T08:03:15;100848.16;;;13.59;93.47
67697;BME280;54486;51.442;6.778;2023-04-28T08:05:43;100839.41;;;13.60;92.61
67697;BME280;54486;51.442;6.778;2023-04-28T08:08:11;100839.31;;;13.65;92.08
67697;BME280;54486;51.442;6.778;2023-04-28T08:10:39;100837.41;;;13.73;92.13
67697;BME280;54486;51.442;6.778;2023-04-28T08:13:07;100838.13;;;13.81;91.62
67697;BME280;54486;51.442;6.778;2023-04-28T08:15:35;100841.41;;;13.92;91.58
67697;BME280;54486;51.442;6.778;2023-04-28T08:18:02;100827.34;;;13.95;90.82
67697;BME280;54486;51.442;6.778;2023-04-28T08:20:29;100832.31;;;14.08;91.34
67697;BME280;54486;51.442;6.778;2023-04-28T08:22:58;100833.78;;;14.21;90.17
67697;BME280;54486;51.442;6.778;2023-04-28T08:25:35;100837.16;;;14.26;89.98
67697;BME280;54486;51.442;6.778;2023-04-28T08:28:12;100833.56;;;14.34;88.51
67697;BME280;54486;51.442;6.778;2023-04-28T08:30:39;100831.81;;;14.32;89.56
67697;BME280;54486;51.442;6.778;2023-04-28T08:33:06;100828.22;;;14.38;88.70
67697;BME280;54486;51.442;6.778;2023-04-28T08:35:34;100840.97;;;14.55;89.63
67697;BME280;54486;51.442;6.778;2023-04-28T08:38:01;100831.25;;;14.58;87.09
67697;BME280;54486;51.442;6.778;2023-04-28T08:40:29;100825.88;;;14.64;87.55
67697;BME280;54486;51.442;6.778;2023-04-28T08:42:58;100820.56;;;14.66;86.85
67697;BME280;54486;51.442;6.778;2023-04-28T08:45:29;100826.78;;;14.62;87.76
67697;BME280;54486;51.442;6.778;2023-04-28T08:47:57;100831.06;;;14.67;88.20
67697;BME280;54486;51.442;6.778;2023-04-28T08:50:28;100824.09;;;14.65;86.68
67697;BME280;54486;51.442;6.778;2023-04-28T08:53:00;100824.00;;;14.68;86.81
67697;BME280;54486;51.442;6.778;2023-04-28T08:55:30;100830.06;;;14.71;87.84
67697;BME280;54486;51.442;6.778;2023-04-28T08:58:00;100832.44;;;14.82;88.18
67697;BME280;54486;51.442;6.778;2023-04-28T09:00:28;100833.88;;;14.95;88.64
67697;BME280;54486;51.442;6.778;2023-04-28T09:02:55;100830.06;;;15.08;88.72
67697;BME280;54486;51.442;6.778;2023-04-28T09:05:23;100828.06;;;15.16;87.43
67697;BME280;54486;51.442;6.778;2023-04-28T09:07:51;100834.38;;;15.09;87.04
67697;BME280;54486;51.442;6.778;2023-04-28T09:10:23;100838.81;;;15.07;86.69
67697;BME280;54486;51.442;6.778;2023-04-28T09:12:52;100833.72;;;15.01;88.54
67697;BME280;54486;51.442;6.778;2023-04-28T09:15:26;100825.09;;;14.96;90.07
67697;BME280;54486;51.442;6.778;2023-04-28T09:17:54;100826.72;;;15.00;91.46
67697;BME280;54486;51.442;6.778;2023-04-28T09:20:25;100835.47;;;15.02;92.28
67697;BME280;54486;51.442;6.778;2023-04-28T09:22:55;100830.84;;;15.12;91.55
67697;BME280;54486;51.442;6.778;2023-04-28T09:25:22;100835.53;;;14.99;91.75
67697;BME280;54486;51.442;6.778;2023-04-28T09:27:50;100835.53;;;14.99;92.45
67697;BME280;54486;51.442;6.778;2023-04-28T09:30:17;100825.03;;;14.99;91.93
67697;BME280;54486;51.442;6.778;2023-04-28T09:33:03;100824.72;;;15.11;92.81
67697;BME280;54486;51.442;6.778;2023-04-28T09:35:41;100825.28;;;15.22;90.81
67697;BME280;54486;51.442;6.778;2023-04-28T09:38:08;100825.91;;;15.33;90.33
67697;BME280;54486;51.442;6.778;2023-04-28T09:40:52;100822.22;;;15.41;89.84
67697;BME280;54486;51.442;6.778;2023-04-28T09:45:54;100818.13;;;15.63;89.08
67697;BME280;54486;51.442;6.778;2023-04-28T09:48:29;100808.16;;;15.74;88.45
67697;BME280;54486;51.442;6.778;2023-04-28T09:50:58;100807.19;;;15.78;88.35
67697;BME280;54486;51.442;6.778;2023-04-28T09:53:26;100814.94;;;15.82;87.46
67697;BME280;54486;51.442;6.778;2023-04-28T09:55:56;100808.03;;;15.78;87.48
67697;BME280;54486;51.442;6.778;2023-04-28T09:58:25;100811.47;;;15.80;88.06
67697;BME280;54486;51.442;6.778;2023-04-28T10:00:57;100817.53;;;15.84;88.05
67697;BME280;54486;51.442;6.778;2023-04-28T10:03:26;100807.19;;;15.78;87.46
67697;BME280;54486;51.442;6.778;2023-04-28T10:06:00;100805.78;;;15.65;86.42
67697;BME280;54486;51.442;6.778;2023-04-28T10:08:28;100809.66;;;15.52;87.55
67697;BME280;54486;51.442;6.778;2023-04-28T10:10:55;100817.59;;;15.50;87.50
67697;BME280;54486;51.442;6.778;2023-04-28T10:13:23;100818.47;;;15.51;88.41
67697;BME280;54486;51.442;6.778;2023-04-28T10:16:03;100820.16;;;15.52;88.83
67697;BME280;54486;51.442;6.778;2023-04-28T10:18:31;100813.22;;;15.51;89.25
67697;BME280;54486;51.442;6.778;2023-04-28T10:21:02;100819.75;;;15.34;89.38
67697;BME280;54486;51.442;6.778;2023-04-28T10:23:59;100808.31;;;15.35;90.42
67697;BME280;54486;51.442;6.778;2023-04-28T10:29:25;100808.06;;;15.45;89.42
67697;BME280;54486;51.442;6.778;2023-04-28T10:32:17;100811.38;;;15.53;90.08
67697;BME280;54486;51.442;6.778;2023-04-28T10:34:44;100809.22;;;15.67;89.82
67697;BME280;54486;51.442;6.778;2023-04-28T10:37:12;100823.22;;;15.69;88.24
67697;BME280;54486;51.442;6.778;2023-04-28T10:42:55;100814.75;;;15.58;89.95
67697;BME280;54486;51.442;6.778;2023-04-28T10:48:50;100814.19;;;15.45;90.47
67697;BME280;54486;51.442;6.778;2023-04-28T10:51:31;100808.22;;;15.38;90.94
67697;BME280;54486;51.442;6.778;2023-04-28T10:54:08;100808.22;;;15.38;90.78
67697;BME280;54486;51.442;6.778;2023-04-28T10:56:41;100815.00;;;15.49;91.73
67697;BME280;54486;51.442;6.778;2023-04-28T10:59:28;100812.59;;;15.40;92.39
67697;BME280;54486;51.442;6.778;2023-04-28T11:02:34;100820.47;;;15.40;94.17
67697;BME280;54486;51.442;6.778;2023-04-28T11:05:12;100813.56;;;15.35;96.24
67697;BME280;54486;51.442;6.778;2023-04-28T11:13:42;100810.53;;;15.18;99.28
67697;BME280;54486;51.442;6.778;2023-04-28T11:16:14;100805.44;;;15.12;100.00
67697;BME280;54486;51.442;6.778;2023-04-28T11:18:53;100811.56;;;15.11;100.00
67697;BME280;54486;51.442;6.778;2023-04-28T11:21:24;100811.66;;;15.08;100.00
67697;BME280;54486;51.442;6.778;2023-04-28T11:23:52;100800.09;;;15.15;100.00
67697;BME280;54486;51.442;6.778;2023-04-28T11:26:22;100802.50;;;15.23;100.00
67697;BME280;54486;51.442;6.778;2023-04-28T11:28:55;100810.38;;;15.24;100.00
67697;BME280;54486;51.442;6.778;2023-04-28T11:31:33;100802.41;;;15.26;100.00
67697;BME280;54486;51.442;6.778;2023-04-28T11:34:10;100807.34;;;15.38;100.00
67697;BME280;54486;51.442;6.778;2023-04-28T11:36:39;100799.22;;;15.49;100.00
67697;BME280;54486;51.442;6.778;2023-04-28T11:39:08;100806.22;;;15.50;100.00
67697;BME280;54486;51.442;6.778;2023-04-28T11:41:37;100811.59;;;15.44;100.00
67697;BME280;54486;51.442;6.778;2023-04-28T11:44:18;100817.06;;;15.36;100.00
67697;BME280;54486;51.442;6.778;2023-04-28T11:46:51;100810.13;;;15.33;100.00
67697;BME280;54486;51.442;6.778;2023-04-28T11:49:26;100807.34;;;15.38;100.00
67697;BME280;54486;51.442;6.778;2023-04-28T11:52:05;100813.41;;;15.42;100.00
67697;BME280;54486;51.442;6.778;2023-04-28T11:54:34;100813.41;;;15.42;100.00
67697;BME280;54486;51.442;6.778;2023-04-28T11:57:02;100808.13;;;15.42;100.00
67697;BME280;54486;51.442;6.778;2023-04-28T11:59:33;100813.41;;;15.42;100.00
67697;BME280;54486;51.442;6.778;2023-04-28T12:02:03;100815.22;;;15.40;100.00
67697;BME280;54486;51.442;6.778;2023-04-28T12:04:35;100813.41;;;15.42;100.00
67697;BME280;54486;51.442;6.778;2023-04-28T12:09:36;100813.22;;;15.51;100.00
67697;BME280;54486;51.442;6.778;2023-04-28T12:12:12;100813.75;;;15.63;100.00
67697;BME280;54486;51.442;6.778;2023-04-28T12:17:29;100808.41;;;15.96;100.00
67697;BME280;54486;51.442;6.778;2023-04-28T12:19:59;100811.22;;;15.89;100.00
67697;BME280;54486;51.442;6.778;2023-04-28T12:22:27;100813.81;;;15.91;100.00
67697;BME280;54486;51.442;6.778;2023-04-28T12:25:21;100804.94;;;15.95;100.00
67697;BME280;54486;51.442;6.778;2023-04-28T12:27:58;100808.56;;;15.91;100.00
67697;BME280;54486;51.442;6.778;2023-04-28T12:30:36;100802.13;;;16.01;100.00
67697;BME280;54486;51.442;6.778;2023-04-28T12:33:26;100796.63;;;16.09;100.00
67697;BME280;54486;51.442;6.778;2023-04-28T12:35:56;100802.13;;;16.30;100.00
67697;BME280;54486;51.442;6.778;2023-04-28T12:38:25;100787.13;;;16.62;100.00
67697;BME280;54486;51.442;6.778;2023-04-28T12:40:52;100792.22;;;16.94;95.88
67697;BME280;54486;51.442;6.778;2023-04-28T12:43:20;100781.50;;;17.23;94.78
67697;BME280;54486;51.442;6.778;2023-04-28T12:45:50;100784.34;;;17.68;93.90
67697;BME280;54486;51.442;6.778;2023-04-28T12:48:19;100771.94;;;18.17;90.92
67697;BME280;54486;51.442;6.778;2023-04-28T12:50:46;100777.00;;;18.44;86.38
67697;BME280;54486;51.442;6.778;2023-04-28T12:53:14;100775.88;;;18.28;84.53
67697;BME280;54486;51.442;6.778;2023-04-28T12:55:41;100779.09;;;18.36;86.12
67697;BME280;54486;51.442;6.778;2023-04-28T12:58:08;100772.44;;;18.26;83.95
67697;BME280;54486;51.442;6.778;2023-04-28T13:00:35;100779.34;;;18.07;85.70
67697;BME280;54486;51.442;6.778;2023-04-28T13:03:02;100776.28;;;17.96;86.25
67697;BME280;54486;51.442;6.778;2023-04-28T13:05:30;100780.00;;;17.90;85.87
67697;BME280;54486;51.442;6.778;2023-04-28T13:07:58;100774.25;;;17.79;86.60
67697;BME280;54486;51.442;6.778;2023-04-28T13:10:25;100768.38;;;17.71;86.44
67697;BME280;54486;51.442;6.778;2023-04-28T13:12:52;100775.03;;;17.58;85.36
67697;BME280;54486;51.442;6.778;2023-04-28T13:15:22;100764.53;;;17.57;87.42
67697;BME280;54486;51.442;6.778;2023-04-28T13:17:49;100760.66;;;17.67;87.26
67697;BME280;54486;51.442;6.778;2023-04-28T13:20:17;100758.34;;;17.81;86.22
67697;BME280;54486;51.442;6.778;2023-04-28T13:22:44;100752.75;;;17.90;84.77